sensor_id;sensor_type;location;lat;lon;timestamp;P1;durP1;ratioP1;P2;durP2;ratioP2
55545;SDS011;44768;50.298;127.520;2022-08-21T00:03:58;2.38;;;0.60;;
55545;SDS011;44768;50.298;127.520;2022-08-21T00:09:05;6.55;;;1.00;;
55545;SDS011;44768;50.298;127.520;2022-08-21T00:14:07;6.78;;;0.80;;
55545;SDS011;44768;50.298;127.520;2022-08-21T00:19:09;3.88;;;0.73;;
55545;SDS011;44768;50.298;127.520;2022-08-21T00:24:12;3.55;;;0.60;;
55545;SDS011;44768;50.298;127.520;2022-08-21T00:29:14;0.70;;;0.50;;
55545;SDS011;44768;50.298;127.520;2022-08-21T00:34:15;2.75;;;0.40;;
55545;SDS011;44768;50.298;127.520;2022-08-21T00:39:16;6.40;;;0.77;;
55545;SDS011;44768;50.298;127.520;2022-08-21T00:44:18;3.30;;;0.60;;
55545;SDS011;44768;50.298;127.520;2022-08-21T00:49:19;5.32;;;0.70;;
55545;SDS011;44768;50.298;127.520;2022-08-21T00:54:22;1.85;;;0.50;;
55545;SDS011;44768;50.298;127.520;2022-08-21T00:59:25;2.60;;;0.80;;
55545;SDS011;44768;50.298;127.520;2022-08-21T01:04:27;2.67;;;0.60;;
55545;SDS011;44768;50.298;127.520;2022-08-21T01:09:28;5.70;;;1.08;;
55545;SDS011;44768;50.298;127.520;2022-08-21T01:14:30;2.38;;;0.60;;
55545;SDS011;44768;50.298;127.520;2022-08-21T01:19:31;1.48;;;0.60;;
55545;SDS011;44768;50.298;127.520;2022-08-21T01:24:33;3.05;;;0.68;;
55545;SDS011;44768;50.298;127.520;2022-08-21T01:39:36;5.90;;;0.90;;
55545;SDS011;44768;50.298;127.520;2022-08-21T01:44:39;2.83;;;0.60;;
55545;SDS011;44768;50.298;127.520;2022-08-21T01:49:40;2.22;;;0.60;;
55545;SDS011;44768;50.298;127.520;2022-08-21T01:54:42;2.20;;;0.65;;
55545;SDS011;44768;50.298;127.520;2022-08-21T02:04:45;1.40;;;0.77;;
55545;SDS011;44768;50.298;127.520;2022-08-21T02:09:46;2.42;;;0.60;;
55545;SDS011;44768;50.298;127.520;2022-08-21T02:14:48;1.48;;;0.50;;
55545;SDS011;44768;50.298;127.520;2022-08-21T02:24:50;1.63;;;0.70;;
55545;SDS011;44768;50.298;127.520;2022-08-21T02:29:52;6.05;;;0.73;;
55545;SDS011;44768;50.298;127.520;2022-08-21T02:34:53;3.28;;;0.60;;
55545;SDS011;44768;50.298;127.520;2022-08-21T02:39:55;2.65;;;0.50;;
55545;SDS011;44768;50.298;127.520;2022-08-21T02:44:56;1.17;;;0.90;;
55545;SDS011;44768;50.298;127.520;2022-08-21T02:49:58;3.83;;;0.60;;
55545;SDS011;44768;50.298;127.520;2022-08-21T02:55:00;3.78;;;0.77;;
55545;SDS011;44768;50.298;127.520;2022-08-21T03:00:02;2.90;;;0.70;;
55545;SDS011;44768;50.298;127.520;2022-08-21T03:05:06;3.83;;;0.70;;
55545;SDS011;44768;50.298;127.520;2022-08-21T03:10:08;3.42;;;0.68;;
55545;SDS011;44768;50.298;127.520;2022-08-21T03:15:12;7.20;;;0.80;;
55545;SDS011;44768;50.298;127.520;2022-08-21T03:20:15;7.88;;;1.70;;
55545;SDS011;44768;50.298;127.520;2022-08-21T03:25:17;3.60;;;1.67;;
55545;SDS011;44768;50.298;127.520;2022-08-21T03:30:19;4.53;;;1.00;;
55545;SDS011;44768;50.298;127.520;2022-08-21T03:35:21;2.53;;;0.70;;
55545;SDS011;44768;50.298;127.520;2022-08-21T03:40:22;2.17;;;0.40;;
55545;SDS011;44768;50.298;127.520;2022-08-21T03:45:24;0.82;;;0.70;;
55545;SDS011;44768;50.298;127.520;2022-08-21T03:50:27;0.95;;;0.73;;
55545;SDS011;44768;50.298;127.520;2022-08-21T03:55:28;3.78;;;1.08;;
55545;SDS011;44768;50.298;127.520;2022-08-21T04:00:30;4.57;;;1.10;;
55545;SDS011;44768;50.298;127.520;2022-08-21T04:05:37;3.05;;;0.73;;
55545;SDS011;44768;50.298;127.520;2022-08-21T04:10:48;1.55;;;0.85;;
55545;SDS011;44768;50.298;127.520;2022-08-21T04:15:54;4.57;;;0.95;;
55545;SDS011;44768;50.298;127.520;2022-08-21T04:20:59;1.65;;;0.47;;
55545;SDS011;44768;50.298;127.520;2022-08-21T04:26:00;4.25;;;0.70;;
55545;SDS011;44768;50.298;127.520;2022-08-21T04:31:02;1.83;;;0.80;;
55545;SDS011;44768;50.298;127.520;2022-08-21T04:36:04;2.00;;;0.70;;
55545;SDS011;44768;50.298;127.520;2022-08-21T04:41:05;0.50;;;0.50;;
55545;SDS011;44768;50.298;127.520;2022-08-21T04:46:07;1.33;;;0.50;;
55545;SDS011;44768;50.298;127.520;2022-08-21T04:56:55;1.75;;;0.63;;
55545;SDS011;44768;50.298;127.520;2022-08-21T05:01:36;2.03;;;0.60;;
55545;SDS011;44768;50.298;127.520;2022-08-21T05:06:39;4.97;;;1.65;;
55545;SDS011;44768;50.298;127.520;2022-08-21T05:11:42;8.02;;;0.80;;
55545;SDS011;44768;50.298;127.520;2022-08-21T05:16:45;15.07;;;1.17;;
55545;SDS011;44768;50.298;127.520;2022-08-21T05:21:46;1.05;;;0.47;;
55545;SDS011;44768;50.298;127.520;2022-08-21T05:26:50;10.07;;;0.98;;
55545;SDS011;44768;50.298;127.520;2022-08-21T05:31:51;4.45;;;0.90;;
55545;SDS011;44768;50.298;127.520;2022-08-21T05:36:52;1.08;;;0.90;;
55545;SDS011;44768;50.298;127.520;2022-08-21T05:41:53;4.22;;;0.63;;
55545;SDS011;44768;50.298;127.520;2022-08-21T05:46:55;2.78;;;0.70;;
55545;SDS011;44768;50.298;127.520;2022-08-21T05:51:56;11.50;;;5.43;;
55545;SDS011;44768;50.298;127.520;2022-08-21T05:56:57;6.28;;;1.60;;
55545;SDS011;44768;50.298;127.520;2022-08-21T06:01:59;4.32;;;0.93;;
55545;SDS011;44768;50.298;127.520;2022-08-21T06:07:03;2.85;;;0.60;;
55545;SDS011;44768;50.298;127.520;2022-08-21T06:12:06;2.90;;;0.90;;
55545;SDS011;44768;50.298;127.520;2022-08-21T06:17:09;4.03;;;0.75;;
55545;SDS011;44768;50.298;127.520;2022-08-21T06:22:10;8.98;;;1.30;;
55545;SDS011;44768;50.298;127.520;2022-08-21T06:27:12;8.40;;;1.30;;
55545;SDS011;44768;50.298;127.520;2022-08-21T06:32:13;23.55;;;3.25;;
55545;SDS011;44768;50.298;127.520;2022-08-21T06:37:14;32.85;;;6.47;;
55545;SDS011;44768;50.298;127.520;2022-08-21T06:42:16;14.00;;;2.05;;
55545;SDS011;44768;50.298;127.520;2022-08-21T06:47:18;5.70;;;1.20;;
55545;SDS011;44768;50.298;127.520;2022-08-21T06:52:19;3.40;;;0.88;;
55545;SDS011;44768;50.298;127.520;2022-08-21T06:57:20;5.07;;;0.90;;
55545;SDS011;44768;50.298;127.520;2022-08-21T07:02:23;3.70;;;1.13;;
55545;SDS011;44768;50.298;127.520;2022-08-21T07:07:25;1.10;;;0.80;;
55545;SDS011;44768;50.298;127.520;2022-08-21T07:12:26;1.83;;;1.10;;
55545;SDS011;44768;50.298;127.520;2022-08-21T07:17:28;6.15;;;2.15;;
55545;SDS011;44768;50.298;127.520;2022-08-21T07:22:31;2.35;;;1.52;;
55545;SDS011;44768;50.298;127.520;2022-08-21T07:27:32;3.83;;;1.70;;
55545;SDS011;44768;50.298;127.520;2022-08-21T07:32:34;5.82;;;3.05;;
55545;SDS011;44768;50.298;127.520;2022-08-21T07:37:37;20.48;;;15.73;;
55545;SDS011;44768;50.298;127.520;2022-08-21T07:42:41;6.47;;;2.63;;
55545;SDS011;44768;50.298;127.520;2022-08-21T07:47:43;4.45;;;2.60;;
55545;SDS011;44768;50.298;127.520;2022-08-21T07:52:44;3.28;;;1.30;;
55545;SDS011;44768;50.298;127.520;2022-08-21T07:57:46;7.25;;;1.23;;
55545;SDS011;44768;50.298;127.520;2022-08-21T08:02:49;2.10;;;1.20;;
55545;SDS011;44768;50.298;127.520;2022-08-21T08:07:52;3.70;;;1.02;;
55545;SDS011;44768;50.298;127.520;2022-08-21T08:12:53;5.05;;;1.35;;
55545;SDS011;44768;50.298;127.520;2022-08-21T08:17:56;9.00;;;1.80;;
55545;SDS011;44768;50.298;127.520;2022-08-21T08:22:57;8.48;;;2.08;;
55545;SDS011;44768;50.298;127.520;2022-08-21T08:28:00;8.60;;;1.65;;
55545;SDS011;44768;50.298;127.520;2022-08-21T08:33:01;5.40;;;1.55;;
55545;SDS011;44768;50.298;127.520;2022-08-21T08:38:03;4.70;;;1.30;;
55545;SDS011;44768;50.298;127.520;2022-08-21T08:43:05;2.17;;;1.02;;
55545;SDS011;44768;50.298;127.520;2022-08-21T08:48:08;4.30;;;1.40;;
55545;SDS011;44768;50.298;127.520;2022-08-21T08:53:12;3.03;;;1.20;;
55545;SDS011;44768;50.298;127.520;2022-08-21T08:58:19;1.98;;;0.98;;
55545;SDS011;44768;50.298;127.520;2022-08-21T09:03:27;4.10;;;0.90;;
55545;SDS011;44768;50.298;127.520;2022-08-21T09:24:48;9.13;;;1.50;;
55545;SDS011;44768;50.298;127.520;2022-08-21T09:29:30;6.03;;;1.70;;
55545;SDS011;44768;50.298;127.520;2022-08-21T09:34:34;4.93;;;1.80;;
55545;SDS011;44768;50.298;127.520;2022-08-21T09:39:38;9.35;;;2.40;;
55545;SDS011;44768;50.298;127.520;2022-08-21T09:44:40;10.55;;;2.45;;
55545;SDS011;44768;50.298;127.520;2022-08-21T09:49:44;5.80;;;2.30;;
55545;SDS011;44768;50.298;127.520;2022-08-21T09:54:46;16.05;;;5.45;;
55545;SDS011;44768;50.298;127.520;2022-08-21T09:59:47;26.75;;;12.88;;
55545;SDS011;44768;50.298;127.520;2022-08-21T10:04:50;11.80;;;7.30;;
55545;SDS011;44768;50.298;127.520;2022-08-21T10:15:17;13.60;;;2.63;;
55545;SDS011;44768;50.298;127.520;2022-08-21T10:20:25;16.45;;;3.85;;
55545;SDS011;44768;50.298;127.520;2022-08-21T10:25:44;22.85;;;3.97;;
55545;SDS011;44768;50.298;127.520;2022-08-21T10:31:00;13.93;;;5.10;;
55545;SDS011;44768;50.298;127.520;2022-08-21T10:41:20;22.60;;;4.10;;
55545;SDS011;44768;50.298;127.520;2022-08-21T10:56:30;27.83;;;5.10;;
55545;SDS011;44768;50.298;127.520;2022-08-21T11:01:34;49.17;;;8.18;;
55545;SDS011;44768;50.298;127.520;2022-08-21T11:06:41;49.30;;;8.18;;
55545;SDS011;44768;50.298;127.520;2022-08-21T11:11:50;52.92;;;9.50;;
55545;SDS011;44768;50.298;127.520;2022-08-21T11:16:57;52.42;;;9.15;;
55545;SDS011;44768;50.298;127.520;2022-08-21T11:27:29;29.30;;;6.65;;
55545;SDS011;44768;50.298;127.520;2022-08-21T11:37:45;65.20;;;7.97;;
55545;SDS011;44768;50.298;127.520;2022-08-21T11:58:19;28.73;;;6.55;;
55545;SDS011;44768;50.298;127.520;2022-08-21T12:03:26;50.95;;;23.13;;
55545;SDS011;44768;50.298;127.520;2022-08-21T12:13:32;51.63;;;8.45;;
55545;SDS011;44768;50.298;127.520;2022-08-21T12:18:34;40.58;;;7.45;;
55545;SDS011;44768;50.298;127.520;2022-08-21T12:23:47;28.50;;;6.90;;
55545;SDS011;44768;50.298;127.520;2022-08-21T12:28:49;26.92;;;7.35;;
55545;SDS011;44768;50.298;127.520;2022-08-21T12:38:56;34.28;;;7.38;;
55545;SDS011;44768;50.298;127.520;2022-08-21T12:49:16;32.53;;;7.53;;
55545;SDS011;44768;50.298;127.520;2022-08-21T12:55:02;27.90;;;7.72;;
55545;SDS011;44768;50.298;127.520;2022-08-21T12:59:44;41.55;;;9.10;;
55545;SDS011;44768;50.298;127.520;2022-08-21T13:04:45;34.65;;;8.02;;
55545;SDS011;44768;50.298;127.520;2022-08-21T13:09:59;45.67;;;9.60;;
55545;SDS011;44768;50.298;127.520;2022-08-21T13:15:05;40.90;;;10.40;;
55545;SDS011;44768;50.298;127.520;2022-08-21T13:20:18;33.53;;;8.20;;
55545;SDS011;44768;50.298;127.520;2022-08-21T13:25:21;39.63;;;7.90;;
55545;SDS011;44768;50.298;127.520;2022-08-21T13:30:22;25.48;;;7.00;;
55545;SDS011;44768;50.298;127.520;2022-08-21T13:40:28;27.10;;;6.70;;
55545;SDS011;44768;50.298;127.520;2022-08-21T13:45:31;32.05;;;7.05;;
55545;SDS011;44768;50.298;127.520;2022-08-21T13:50:33;33.20;;;7.15;;
55545;SDS011;44768;50.298;127.520;2022-08-21T13:55:37;23.98;;;7.20;;
55545;SDS011;44768;50.298;127.520;2022-08-21T14:00:44;25.33;;;7.03;;
55545;SDS011;44768;50.298;127.520;2022-08-21T14:05:45;57.38;;;7.28;;
55545;SDS011;44768;50.298;127.520;2022-08-21T14:10:48;45.05;;;6.35;;
55545;SDS011;44768;50.298;127.520;2022-08-21T14:15:58;43.75;;;6.50;;
55545;SDS011;44768;50.298;127.520;2022-08-21T14:21:06;25.23;;;6.03;;
55545;SDS011;44768;50.298;127.520;2022-08-21T14:26:08;20.13;;;5.45;;
55545;SDS011;44768;50.298;127.520;2022-08-21T14:31:16;24.52;;;5.57;;
55545;SDS011;44768;50.298;127.520;2022-08-21T14:36:18;17.52;;;3.50;;
55545;SDS011;44768;50.298;127.520;2022-08-21T14:41:20;12.45;;;2.97;;
55545;SDS011;44768;50.298;127.520;2022-08-21T14:46:24;13.85;;;3.08;;
55545;SDS011;44768;50.298;127.520;2022-08-21T14:51:26;8.10;;;2.13;;
55545;SDS011;44768;50.298;127.520;2022-08-21T14:56:27;6.25;;;1.48;;
55545;SDS011;44768;50.298;127.520;2022-08-21T15:01:29;9.05;;;1.33;;
55545;SDS011;44768;50.298;127.520;2022-08-21T15:06:30;4.13;;;1.60;;
55545;SDS011;44768;50.298;127.520;2022-08-21T15:11:32;5.85;;;1.20;;
55545;SDS011;44768;50.298;127.520;2022-08-21T15:16:35;2.63;;;1.30;;
55545;SDS011;44768;50.298;127.520;2022-08-21T15:21:36;4.72;;;1.10;;
55545;SDS011;44768;50.298;127.520;2022-08-21T15:26:38;4.40;;;1.60;;
55545;SDS011;44768;50.298;127.520;2022-08-21T15:31:58;4.07;;;1.25;;
55545;SDS011;44768;50.298;127.520;2022-08-21T15:37:00;9.15;;;1.10;;
55545;SDS011;44768;50.298;127.520;2022-08-21T15:42:01;2.38;;;1.30;;
55545;SDS011;44768;50.298;127.520;2022-08-21T15:47:03;5.00;;;1.27;;
55545;SDS011;44768;50.298;127.520;2022-08-21T15:52:04;7.47;;;1.45;;
55545;SDS011;44768;50.298;127.520;2022-08-21T15:57:05;4.35;;;1.50;;
55545;SDS011;44768;50.298;127.520;2022-08-21T16:02:08;8.98;;;1.98;;
55545;SDS011;44768;50.298;127.520;2022-08-21T16:12:40;12.63;;;2.53;;
55545;SDS011;44768;50.298;127.520;2022-08-21T16:17:44;6.68;;;1.95;;
55545;SDS011;44768;50.298;127.520;2022-08-21T16:22:48;2.40;;;1.50;;
55545;SDS011;44768;50.298;127.520;2022-08-21T16:27:51;4.82;;;1.60;;
55545;SDS011;44768;50.298;127.520;2022-08-21T16:32:53;6.25;;;1.75;;
55545;SDS011;44768;50.298;127.520;2022-08-21T16:37:55;1.88;;;1.20;;
55545;SDS011;44768;50.298;127.520;2022-08-21T16:47:57;5.40;;;1.20;;
55545;SDS011;44768;50.298;127.520;2022-08-21T16:52:59;2.42;;;1.30;;
55545;SDS011;44768;50.298;127.520;2022-08-21T16:58:00;1.08;;;0.98;;
55545;SDS011;44768;50.298;127.520;2022-08-21T17:03:03;5.55;;;1.08;;
55545;SDS011;44768;50.298;127.520;2022-08-21T17:08:04;2.47;;;1.30;;
55545;SDS011;44768;50.298;127.520;2022-08-21T17:13:05;4.05;;;1.20;;
55545;SDS011;44768;50.298;127.520;2022-08-21T17:18:08;2.83;;;1.02;;
55545;SDS011;44768;50.298;127.520;2022-08-21T17:23:10;8.23;;;1.20;;
55545;SDS011;44768;50.298;127.520;2022-08-21T17:28:16;2.05;;;0.90;;
55545;SDS011;44768;50.298;127.520;2022-08-21T17:33:19;4.25;;;1.10;;
55545;SDS011;44768;50.298;127.520;2022-08-21T17:38:20;3.78;;;1.20;;
55545;SDS011;44768;50.298;127.520;2022-08-21T17:43:22;5.70;;;1.20;;
55545;SDS011;44768;50.298;127.520;2022-08-21T17:48:23;4.43;;;1.23;;
55545;SDS011;44768;50.298;127.520;2022-08-21T17:53:24;1.30;;;1.10;;
55545;SDS011;44768;50.298;127.520;2022-08-21T17:58:26;4.10;;;1.10;;
55545;SDS011;44768;50.298;127.520;2022-08-21T18:03:28;4.68;;;1.02;;
55545;SDS011;44768;50.298;127.520;2022-08-21T18:08:35;4.30;;;1.00;;
55545;SDS011;44768;50.298;127.520;2022-08-21T18:13:37;4.05;;;1.40;;
55545;SDS011;44768;50.298;127.520;2022-08-21T18:18:39;4.00;;;1.00;;
55545;SDS011;44768;50.298;127.520;2022-08-21T18:23:42;2.80;;;0.80;;
55545;SDS011;44768;50.298;127.520;2022-08-21T18:28:43;1.45;;;0.88;;
55545;SDS011;44768;50.298;127.520;2022-08-21T18:38:45;0.80;;;0.80;;
55545;SDS011;44768;50.298;127.520;2022-08-21T18:43:46;4.22;;;0.70;;
55545;SDS011;44768;50.298;127.520;2022-08-21T18:48:48;3.25;;;0.90;;
55545;SDS011;44768;50.298;127.520;2022-08-21T18:53:49;2.80;;;0.80;;
55545;SDS011;44768;50.298;127.520;2022-08-21T18:58:51;2.95;;;0.88;;
55545;SDS011;44768;50.298;127.520;2022-08-21T19:03:58;3.05;;;0.80;;
55545;SDS011;44768;50.298;127.520;2022-08-21T19:09:00;1.95;;;0.90;;
55545;SDS011;44768;50.298;127.520;2022-08-21T19:14:03;5.22;;;1.00;;
55545;SDS011;44768;50.298;127.520;2022-08-21T19:19:04;3.22;;;0.85;;
55545;SDS011;44768;50.298;127.520;2022-08-21T19:29:07;0.95;;;0.80;;
55545;SDS011;44768;50.298;127.520;2022-08-21T19:34:11;1.67;;;0.90;;
55545;SDS011;44768;50.298;127.520;2022-08-21T19:39:13;2.60;;;1.10;;
55545;SDS011;44768;50.298;127.520;2022-08-21T19:49:17;4.85;;;1.15;;
55545;SDS011;44768;50.298;127.520;2022-08-21T19:54:23;6.47;;;0.90;;
55545;SDS011;44768;50.298;127.520;2022-08-21T19:59:24;6.28;;;1.02;;
55545;SDS011;44768;50.298;127.520;2022-08-21T20:04:27;4.22;;;0.90;;
55545;SDS011;44768;50.298;127.520;2022-08-21T20:09:29;5.35;;;0.95;;
55545;SDS011;44768;50.298;127.520;2022-08-21T20:14:31;1.02;;;0.70;;
55545;SDS011;44768;50.298;127.520;2022-08-21T20:19:34;5.07;;;0.80;;
55545;SDS011;44768;50.298;127.520;2022-08-21T20:24:35;1.55;;;1.30;;
55545;SDS011;44768;50.298;127.520;2022-08-21T20:29:37;2.33;;;1.15;;
55545;SDS011;44768;50.298;127.520;2022-08-21T20:34:40;5.85;;;1.40;;
55545;SDS011;44768;50.298;127.520;2022-08-21T20:39:41;1.92;;;1.10;;
55545;SDS011;44768;50.298;127.520;2022-08-21T20:44:42;1.38;;;1.00;;
55545;SDS011;44768;50.298;127.520;2022-08-21T20:49:45;4.20;;;1.10;;
55545;SDS011;44768;50.298;127.520;2022-08-21T20:54:50;4.95;;;1.17;;
55545;SDS011;44768;50.298;127.520;2022-08-21T21:10:05;10.20;;;1.73;;
55545;SDS011;44768;50.298;127.520;2022-08-21T21:15:10;4.70;;;1.50;;
55545;SDS011;44768;50.298;127.520;2022-08-21T21:20:35;10.38;;;1.40;;
55545;SDS011;44768;50.298;127.520;2022-08-21T21:25:46;12.35;;;1.83;;
55545;SDS011;44768;50.298;127.520;2022-08-21T21:30:48;9.73;;;1.33;;
55545;SDS011;44768;50.298;127.520;2022-08-21T21:35:52;4.30;;;1.15;;
55545;SDS011;44768;50.298;127.520;2022-08-21T21:41:10;7.38;;;1.38;;
55545;SDS011;44768;50.298;127.520;2022-08-21T22:07:15;4.13;;;1.30;;
55545;SDS011;44768;50.298;127.520;2022-08-21T22:17:32;8.70;;;1.60;;
55545;SDS011;44768;50.298;127.520;2022-08-21T22:22:34;7.75;;;2.03;;
55545;SDS011;44768;50.298;127.520;2022-08-21T22:27:38;10.00;;;2.20;;
55545;SDS011;44768;50.298;127.520;2022-08-21T22:32:41;5.20;;;1.75;;
55545;SDS011;44768;50.298;127.520;2022-08-21T22:37:46;9.40;;;1.40;;
55545;SDS011;44768;50.298;127.520;2022-08-21T22:42:59;8.82;;;2.00;;
55545;SDS011;44768;50.298;127.520;2022-08-21T22:48:02;8.68;;;1.65;;
55545;SDS011;44768;50.298;127.520;2022-08-21T22:53:05;6.35;;;1.50;;
55545;SDS011;44768;50.298;127.520;2022-08-21T23:08:29;7.13;;;1.65;;
55545;SDS011;44768;50.298;127.520;2022-08-21T23:13:37;8.23;;;1.75;;
55545;SDS011;44768;50.298;127.520;2022-08-21T23:19:01;10.32;;;1.70;;
55545;SDS011;44768;50.298;127.520;2022-08-21T23:29:45;11.30;;;1.60;;
55545;SDS011;44768;50.298;127.520;2022-08-21T23:35:02;9.70;;;1.75;;
55545;SDS011;44768;50.298;127.520;2022-08-21T23:45:22;18.67;;;2.45;;
55545;SDS011;44768;50.298;127.520;2022-08-21T23:50:30;8.98;;;1.17;;
